Time;durP1;ratioP1;P1;durP2;ratioP2;P2;SDS_P1;SDS_P2;PMS_P1;PMS_P2;Temp;Humidity;BMP_temperature;BMP_pressure;BME280_temperature;BME280_humidity;BME280_pressure;Samples;Min_cycle;Max_cycle;Signal;HPM_P1;HPM_P2
2022/01/21 00:01:17;;;;;;;10.80;3.33;;;3.60;99.90;;;;;;5079013;28;20055;-84
2022/01/21 00:03:43;;;;;;;8.20;2.63;;;;;;;;;;5097438;28;20096;-81
2022/01/21 00:06:09;;;;;;;11.40;3.22;;;;;;;;;;5075473;28;20782;-88
2022/01/21 00:08:37;;;;;;;10.57;2.75;;;3.40;99.90;;;;;;5067044;28;20028;-82
2022/01/21 00:11:03;;;;;;;7.18;2.58;;;;;;;;;;5091404;28;20033;-85
2022/01/21 00:13:36;;;;;;;6.65;2.70;;;;;;;;;;5071761;28;20060;-79
2022/01/21 00:16:07;;;;;;;19.23;4.70;;;3.40;99.90;;;;;;5087286;28;20028;-83
2022/01/21 00:18:35;;;;;;;11.40;2.97;;;3.30;99.90;;;;;;5072622;28;20032;-81
2022/01/21 00:31:58;;;;;;;13.35;3.05;;;3.20;99.90;;;;;;5087823;28;20043;-83
2022/01/21 00:34:24;;;;;;;10.48;3.03;;;3.30;99.90;;;;;;5072628;28;20115;-85
2022/01/21 00:36:50;;;;;;;10.32;2.85;;;3.30;99.90;;;;;;5091726;28;20472;-80
2022/01/21 00:39:20;;;;;;;6.90;2.53;;;6.90;99.90;;;;;;5074259;28;20036;-81
2022/01/21 00:41:57;;;;;;;9.40;2.72;;;3.30;99.90;;;;;;5096243;28;20046;-81
2022/01/21 00:44:23;;;;;;;10.82;2.63;;;;;;;;;;5073923;28;20035;-82
2022/01/21 00:46:49;;;;;;;13.52;3.85;;;;;;;;;;5099481;28;20020;-85
2022/01/21 00:49:16;;;;;;;14.45;4.35;;;3.30;99.90;;;;;;5075868;28;20188;-84
2022/01/21 00:51:42;;;;;;;11.82;3.10;;;;;;;;;;5080681;28;20024;-84
2022/01/21 00:54:08;;;;;;;10.48;2.83;;;;;;;;;;5075064;28;20035;-82
2022/01/21 00:56:34;;;;;;;10.45;3.00;;;;;;;;;;5076987;28;20028;-81
2022/01/21 00:59:00;;;;;;;9.93;2.92;;;;;;;;;;5077739;28;20036;-84
2022/01/21 01:01:26;;;;;;;9.95;2.92;;;;;;;;;;5075994;28;20032;-82
2022/01/21 01:03:52;;;;;;;14.68;3.45;;;;;;;;;;5076309;28;20128;-82
2022/01/21 01:06:18;;;;;;;9.48;4.35;;;;;;;;;;5094383;28;20038;-81
2022/01/21 01:08:45;;;;;;;17.83;3.78;;;;;;;;;;5079588;28;20119;-82
2022/01/21 01:21:54;;;;;;;10.40;3.28;;;;;;;;;;5098590;28;20079;-81
2022/01/21 01:29:49;;;;;;;8.30;3.20;;;;;;;;;;5094282;28;20042;-84
2022/01/21 01:32:15;;;;;;;10.95;3.63;;;3.30;99.90;;;;;;5093437;28;20032;-83
2022/01/21 01:34:41;;;;;;;13.07;3.75;;;;;;;;;;5078762;28;20028;-84
2022/01/21 01:37:15;;;;;;;13.07;4.40;;;;;;;;;;5093488;28;20028;-82
2022/01/21 01:39:45;;;;;;;9.63;3.47;;;3.20;99.90;;;;;;5096170;28;20469;-80
2022/01/21 01:50:34;;;;;;;14.40;3.20;;;3.20;99.90;;;;;;5093523;28;20042;-80
2022/01/21 01:53:00;;;;;;;9.00;3.25;;;;;;;;;;5097247;28;20477;-82
2022/01/21 01:55:27;;;;;;;10.73;3.42;;;;;;;;;;5089560;28;20074;-82
2022/01/21 01:57:53;;;;;;;10.25;3.13;;;3.20;99.90;;;;;;5079793;28;20031;-86
2022/01/21 02:00:19;;;;;;;8.65;3.15;;;3.20;99.90;;;;;;5075007;28;20039;-81
2022/01/21 02:02:45;;;;;;;10.20;3.55;;;;;;;;;;5078516;28;20032;-81
2022/01/21 02:05:10;;;;;;;9.23;2.95;;;3.20;99.90;;;;;;5078905;28;20058;-85
2022/01/21 02:07:36;;;;;;;10.55;3.60;;;3.20;99.90;;;;;;5081373;28;20039;-83
2022/01/21 02:10:04;;;;;;;11.75;3.03;;;3.20;99.90;;;;;;5079339;28;20869;-83
2022/01/21 02:12:30;;;;;;;10.68;2.95;;;3.20;99.90;;;;;;5077592;28;20089;-82
2022/01/21 02:14:59;;;;;;;16.35;4.88;;;;;;;;;;5079045;28;20028;-83
2022/01/21 02:22:53;;;;;;;11.68;4.35;;;;;;;;;;5073413;28;20040;-80
2022/01/21 02:25:19;;;;;;;8.48;3.00;;;;;;;;;;5099722;28;20440;-84
2022/01/21 02:27:52;;;;;;;9.48;3.03;;;3.50;99.90;;;;;;5088491;28;20023;-83
2022/01/21 02:30:20;;;;;;;11.80;3.42;;;3.50;99.90;;;;;;5083123;28;20374;-81
2022/01/21 02:32:51;;;;;;;9.23;2.78;;;3.50;99.90;;;;;;5086738;28;20047;-82
2022/01/21 02:35:18;;;;;;;11.90;2.50;;;6.40;99.90;;;;;;5083142;28;20051;-81
2022/01/21 02:37:45;;;;;;;7.00;2.90;;;;;;;;;;5085035;28;20043;-83
2022/01/21 02:40:11;;;;;;;15.70;3.78;;;3.30;99.90;;;;;;5085787;28;20400;-82
2022/01/21 02:42:37;;;;;;;15.80;3.53;;;3.30;99.90;;;;;;5085422;28;20061;-81
2022/01/21 02:45:05;;;;;;;12.05;3.00;;;3.80;99.90;;;;;;5083978;28;20027;-83
2022/01/21 02:47:30;;;;;;;9.77;2.97;;;3.30;99.90;;;;;;5083551;28;20035;-82
2022/01/21 02:49:56;;;;;;;12.60;3.13;;;3.70;99.90;;;;;;5081220;28;20025;-83
2022/01/21 02:52:25;;;;;;;12.55;3.50;;;3.30;99.90;;;;;;5098558;28;20032;-83
2022/01/21 02:54:51;;;;;;;15.52;3.67;;;3.20;99.90;;;;;;5083208;28;20020;-82
2022/01/21 02:57:17;;;;;;;9.20;2.55;;;3.30;99.90;;;;;;5083534;28;20400;-81
2022/01/21 02:59:43;;;;;;;11.35;3.40;;;;;;;;;;5085936;28;20059;-86
2022/01/21 03:02:09;;;;;;;12.10;3.90;;;;;;;;;;5088536;28;20035;-83
2022/01/21 03:04:51;;;;;;;10.00;3.05;;;3.30;99.90;;;;;;5085751;28;20493;-82
2022/01/21 03:07:17;;;;;;;10.75;3.58;;;3.50;99.90;;;;;;5087333;28;20099;-82
2022/01/21 03:09:42;;;;;;;9.18;2.70;;;5.80;99.90;;;;;;5107869;28;20397;-81
2022/01/21 03:12:08;;;;;;;12.68;3.20;;;3.40;99.90;;;;;;5085706;28;20020;-82
2022/01/21 03:14:33;;;;;;;11.82;3.25;;;3.30;99.90;;;;;;5083952;28;20028;-82
2022/01/21 03:16:59;;;;;;;10.50;2.55;;;3.10;99.90;;;;;;5085475;28;20026;-84
2022/01/21 03:19:25;;;;;;;17.15;3.83;;;3.20;99.90;;;;;;5082973;28;20114;-82
2022/01/21 03:21:51;;;;;;;11.40;3.08;;;;;;;;;;5085224;28;20020;-84
2022/01/21 03:24:17;;;;;;;9.05;3.00;;;;;;;;;;5091013;28;20024;-82
2022/01/21 03:26:43;;;;;;;19.58;4.28;;;3.10;99.90;;;;;;5089544;28;20031;-82
2022/01/21 03:29:08;;;;;;;15.30;3.50;;;3.10;99.90;;;;;;5082301;28;20052;-82
2022/01/21 03:31:34;;;;;;;15.05;3.42;;;3.10;99.90;;;;;;5079970;28;20035;-82
2022/01/21 03:34:01;;;;;;;11.65;3.08;;;3.20;99.90;;;;;;5091484;28;20199;-80
2022/01/21 03:36:28;;;;;;;12.15;3.58;;;3.20;99.90;;;;;;5076965;28;20428;-82
2022/01/21 03:38:54;;;;;;;11.23;3.50;;;3.20;99.90;;;;;;5079068;28;20028;-81
2022/01/21 03:41:20;;;;;;;14.32;3.08;;;3.20;99.90;;;;;;5077804;28;20039;-84
2022/01/21 03:43:49;;;;;;;14.18;4.75;;;3.20;99.90;;;;;;5078771;28;20099;-82
2022/01/21 03:46:15;;;;;;;10.43;2.72;;;3.10;99.90;;;;;;5090756;28;20118;-86
2022/01/21 03:48:45;;;;;;;10.50;3.22;;;5.00;99.90;;;;;;5074962;28;20040;-82
2022/01/21 03:51:11;;;;;;;9.45;2.72;;;3.10;99.90;;;;;;5084341;28;20027;-83
2022/01/21 03:53:37;;;;;;;12.35;3.03;;;5.40;99.90;;;;;;5093489;28;20066;-83
2022/01/21 03:56:03;;;;;;;12.38;3.33;;;;;;;;;;5077669;28;20032;-81
2022/01/21 03:58:29;;;;;;;10.35;3.00;;;;;;;;;;5097807;28;20031;-83
2022/01/21 04:00:55;;;;;;;13.35;3.40;;;3.10;99.90;;;;;;5080475;28;20070;-81
2022/01/21 04:03:23;;;;;;;9.15;3.35;;;3.00;99.90;;;;;;5081134;28;20127;-80
2022/01/21 04:05:49;;;;;;;9.07;3.03;;;;;;;;;;5081826;28;20341;-81
2022/01/21 04:08:16;;;;;;;11.45;3.38;;;;;;;;;;5074510;28;20132;-83
2022/01/21 04:10:42;;;;;;;9.60;3.13;;;3.00;99.90;;;;;;5081785;28;20056;-84
2022/01/21 04:13:15;;;;;;;13.63;3.10;;;2.90;99.90;;;;;;5092796;28;20028;-82
2022/01/21 04:15:47;;;;;;;9.77;3.17;;;3.00;99.90;;;;;;5089923;28;20034;-81
2022/01/21 04:18:13;;;;;;;12.98;3.38;;;;;;;;;;5076678;28;20122;-81
2022/01/21 04:20:40;;;;;;;11.00;2.92;;;;;;;;;;5079569;28;20069;-80
2022/01/21 04:23:06;;;;;;;11.32;3.03;;;;;;;;;;5081650;28;20024;-81
2022/01/21 04:25:32;;;;;;;11.75;2.88;;;2.90;99.90;;;;;;5096830;28;20404;-81
2022/01/21 04:27:57;;;;;;;8.98;3.20;;;2.90;99.90;;;;;;5086204;28;20030;-82
2022/01/21 04:30:24;;;;;;;10.70;3.03;;;;;;;;;;5080867;28;20404;-82
2022/01/21 04:32:49;;;;;;;10.77;3.90;;;2.40;99.90;;;;;;5081517;28;20673;-81
2022/01/21 04:35:15;;;;;;;11.40;2.95;;;;;;;;;;5086962;28;20104;-84
2022/01/21 04:37:49;;;;;;;13.07;5.32;;;2.90;99.90;;;;;;5100087;28;20058;-81
2022/01/21 04:40:17;;;;;;;14.23;3.40;;;;;;;;;;5099373;28;20225;-83
2022/01/21 04:48:12;;;;;;;13.15;3.08;;;2.90;99.90;;;;;;5100088;28;20043;-81
2022/01/21 04:50:52;;;;;;;13.80;2.92;;;2.90;99.90;;;;;;5086455;28;20024;-81
2022/01/21 04:53:18;;;;;;;11.35;3.55;;;2.80;99.90;;;;;;5079612;28;20032;-81
2022/01/21 04:55:44;;;;;;;10.68;2.90;;;2.80;99.90;;;;;;5094640;28;20559;-83
2022/01/21 04:58:10;;;;;;;10.73;2.92;;;;;;;;;;5084353;28;20024;-81
2022/01/21 05:00:36;;;;;;;13.70;3.75;;;2.70;99.90;;;;;;5077840;28;20048;-82
2022/01/21 05:03:02;;;;;;;16.50;3.17;;;;;;;;;;5094737;28;20059;-81
2022/01/21 05:05:28;;;;;;;13.32;3.53;;;2.70;99.90;;;;;;5092473;28;20111;-82
2022/01/21 05:07:55;;;;;;;11.15;3.45;;;2.70;99.90;;;;;;5097240;28;20132;-82
2022/01/21 05:10:23;;;;;;;17.90;4.20;;;2.70;99.90;;;;;;5076991;28;20420;-83
2022/01/21 05:12:49;;;;;;;12.57;3.10;;;4.70;99.90;;;;;;5081867;28;20400;-81
2022/01/21 05:17:52;;;;;;;14.10;3.42;;;4.00;99.90;;;;;;5096024;28;20470;-81
2022/01/21 05:20:18;;;;;;;12.27;3.35;;;2.70;99.90;;;;;;5077187;28;20125;-83
2022/01/21 05:22:44;;;;;;;12.55;2.88;;;2.70;99.90;;;;;;5078339;28;20363;-82
2022/01/21 05:25:16;;;;;;;11.00;3.05;;;2.70;99.90;;;;;;5076198;28;20043;-83
2022/01/21 05:27:45;;;;;;;10.30;3.00;;;3.70;99.90;;;;;;5078220;28;20032;-82
2022/01/21 05:30:11;;;;;;;6.80;2.90;;;2.70;99.90;;;;;;5077218;28;20048;-82
2022/01/21 05:32:36;;;;;;;7.43;2.80;;;2.70;99.90;;;;;;5080915;28;20032;-84
2022/01/21 05:35:03;;;;;;;9.25;3.35;;;2.70;99.90;;;;;;5078974;28;20024;-82
2022/01/21 05:37:29;;;;;;;8.95;3.17;;;;;;;;;;5105216;28;20042;-81
2022/01/21 05:39:55;;;;;;;7.90;3.10;;;2.80;99.90;;;;;;5082294;28;20505;-81
2022/01/21 05:42:21;;;;;;;14.05;3.22;;;2.70;99.90;;;;;;5084040;28;20025;-83
2022/01/21 05:47:12;;;;;;;9.68;3.15;;;2.80;99.90;;;;;;5101412;28;20635;-84
2022/01/21 05:49:38;;;;;;;12.52;3.45;;;2.80;99.90;;;;;;5096350;28;20031;-85
2022/01/21 05:52:17;;;;;;;8.82;3.25;;;2.90;99.90;;;;;;5080220;28;20390;-81
2022/01/21 05:54:44;;;;;;;17.05;3.47;;;2.90;99.90;;;;;;5101364;28;20275;-81
2022/01/21 05:57:13;;;;;;;11.40;4.05;;;2.80;99.90;;;;;;5095747;28;20062;-86
2022/01/21 05:59:39;;;;;;;11.35;3.40;;;2.90;99.90;;;;;;5074600;28;20124;-81
2022/01/21 06:02:06;;;;;;;11.82;4.05;;;2.90;99.90;;;;;;5075918;28;20478;-81
2022/01/21 06:04:32;;;;;;;14.68;3.65;;;2.90;99.90;;;;;;5072802;28;20121;-81
2022/01/21 06:07:00;;;;;;;11.85;4.15;;;2.80;99.90;;;;;;5069746;28;20032;-83
2022/01/21 06:09:25;;;;;;;13.75;4.15;;;2.90;99.90;;;;;;5072260;28;20052;-82
2022/01/21 06:11:51;;;;;;;12.63;3.72;;;2.90;99.90;;;;;;5069617;28;20032;-82
2022/01/21 06:14:17;;;;;;;11.60;3.80;;;2.90;99.90;;;;;;5069938;28;20024;-82
2022/01/21 06:16:43;;;;;;;10.98;3.75;;;2.90;99.90;;;;;;5087923;28;20089;-81
2022/01/21 06:19:08;;;;;;;11.73;4.15;;;2.80;99.90;;;;;;5086989;28;20370;-83
2022/01/21 06:21:34;;;;;;;12.75;3.53;;;2.70;99.90;;;;;;5082636;28;20549;-82
2022/01/21 06:24:00;;;;;;;13.43;3.85;;;2.90;99.90;;;;;;5070349;28;20039;-81
2022/01/21 06:26:25;;;;;;;11.18;3.47;;;4.80;99.90;;;;;;5066697;28;20036;-85
2022/01/21 06:28:51;;;;;;;14.27;3.55;;;2.90;99.90;;;;;;5066018;28;20048;-83
2022/01/21 06:31:17;;;;;;;9.35;3.78;;;2.90;99.90;;;;;;5076279;28;20020;-83
2022/01/21 06:33:42;;;;;;;13.40;3.85;;;2.90;99.90;;;;;;5080818;28;20035;-84
2022/01/21 06:36:08;;;;;;;10.10;3.97;;;3.80;99.90;;;;;;5076768;28;20541;-81
2022/01/21 06:38:35;;;;;;;15.70;4.60;;;;;;;;;;5093762;28;20092;-80
2022/01/21 06:41:01;;;;;;;14.05;3.90;;;;;;;;;;5090920;28;20024;-81
2022/01/21 06:43:27;;;;;;;13.50;3.70;;;3.00;99.90;;;;;;5058408;28;20043;-82
2022/01/21 06:45:53;;;;;;;12.70;3.80;;;3.00;99.90;;;;;;5080651;28;20031;-79
2022/01/21 06:48:19;;;;;;;12.10;3.53;;;;;;;;;;5075912;28;20034;-84
2022/01/21 06:50:45;;;;;;;10.23;3.53;;;3.00;99.90;;;;;;5083394;28;20435;-80
2022/01/21 06:53:10;;;;;;;13.35;4.43;;;2.70;99.90;;;;;;5097021;28;20085;-82
2022/01/21 06:55:37;;;;;;;13.63;4.43;;;2.80;99.90;;;;;;5077143;28;20051;-80
2022/01/21 06:58:04;;;;;;;11.80;3.72;;;2.90;99.90;;;;;;5077829;28;20032;-85
2022/01/21 07:00:30;;;;;;;18.23;4.97;;;;;;;;;;5085424;28;20031;-81
2022/01/21 07:02:56;;;;;;;16.52;5.03;;;;;;;;;;5083113;28;20028;-80
2022/01/21 07:05:25;;;;;;;15.50;4.82;;;2.90;99.90;;;;;;5080784;28;20035;-81
2022/01/21 07:07:51;;;;;;;16.25;4.25;;;2.80;99.90;;;;;;5092548;28;20042;-82
2022/01/21 07:10:17;;;;;;;13.30;4.05;;;2.90;99.90;;;;;;5094506;28;20020;-81
2022/01/21 07:12:44;;;;;;;17.60;4.38;;;2.90;99.90;;;;;;5093315;28;20028;-83
2022/01/21 07:15:11;;;;;;;13.52;4.40;;;2.90;99.90;;;;;;5094623;28;20020;-83
2022/01/21 07:17:37;;;;;;;15.98;5.05;;;;;;;;;;5073641;28;20020;-78
2022/01/21 07:20:05;;;;;;;16.95;4.72;;;3.00;99.90;;;;;;5093433;28;20805;-83
2022/01/21 07:22:31;;;;;;;10.38;4.47;;;;;;;;;;5074439;28;20428;-81
2022/01/21 07:24:57;;;;;;;14.73;3.95;;;;;;;;;;5094008;28;20035;-81
2022/01/21 07:27:23;;;;;;;16.10;4.13;;;;;;;;;;5069580;28;20038;-83
2022/01/21 07:29:49;;;;;;;13.18;5.13;;;;;;;;;;5071385;28;20405;-81
2022/01/21 07:32:15;;;;;;;12.32;4.68;;;3.10;99.90;;;;;;5073803;28;20028;-80
2022/01/21 07:34:41;;;;;;;13.23;4.00;;;;;;;;;;5079488;28;20024;-79
2022/01/21 07:37:06;;;;;;;14.77;4.60;;;3.20;99.90;;;;;;5073325;28;20114;-82
2022/01/21 07:39:32;;;;;;;15.63;4.65;;;;;;;;;;5075296;28;20063;-80
2022/01/21 07:41:58;;;;;;;16.10;4.00;;;;;;;;;;5065924;28;20023;-83
2022/01/21 07:44:24;;;;;;;14.98;4.68;;;;;;;;;;5073916;28;20119;-83
2022/01/21 07:46:51;;;;;;;15.57;4.85;;;;;;;;;;5064734;28;20480;-82
2022/01/21 07:49:17;;;;;;;11.45;4.38;;;3.20;99.90;;;;;;5082150;28;20123;-82
2022/01/21 07:51:43;;;;;;;15.57;4.13;;;3.20;99.90;;;;;;5066171;28;20060;-78
2022/01/21 07:54:10;;;;;;;20.45;4.40;;;3.20;99.90;;;;;;5059867;28;20447;-82
2022/01/21 07:56:36;;;;;;;14.35;4.60;;;3.30;99.90;;;;;;5059404;28;20039;-81
2022/01/21 07:59:05;;;;;;;17.15;5.13;;;3.10;99.90;;;;;;5094274;28;20056;-80
2022/01/21 08:01:31;;;;;;;15.98;4.28;;;3.10;99.90;;;;;;5073377;28;20126;-82
2022/01/21 08:03:57;;;;;;;14.32;4.10;;;3.20;99.90;;;;;;5094131;28;20056;-81
2022/01/21 08:06:23;;;;;;;20.77;4.75;;;3.10;99.90;;;;;;5072512;28;20448;-82
2022/01/21 08:08:48;;;;;;;13.45;4.68;;;3.40;99.90;;;;;;5061265;28;20970;-80
2022/01/21 08:11:14;;;;;;;12.23;4.28;;;3.10;99.90;;;;;;5077348;28;20024;-82
2022/01/21 08:13:40;;;;;;;14.73;4.32;;;3.20;99.90;;;;;;5070906;28;20445;-81
2022/01/21 08:16:06;;;;;;;17.13;5.15;;;3.20;99.90;;;;;;5070276;28;20052;-79
2022/01/21 08:18:32;;;;;;;19.30;5.25;;;3.20;99.90;;;;;;5073238;28;20028;-81
2022/01/21 08:20:57;;;;;;;12.07;4.22;;;3.20;99.90;;;;;;5070745;28;20558;-79
2022/01/21 08:23:23;;;;;;;13.77;4.50;;;3.20;99.90;;;;;;5069481;28;20491;-80
2022/01/21 08:25:49;;;;;;;16.95;4.82;;;3.30;99.90;;;;;;5070594;28;20028;-81
2022/01/21 08:28:14;;;;;;;10.98;4.72;;;3.40;99.90;;;;;;5071951;28;20116;-81
2022/01/21 08:30:40;;;;;;;16.85;4.63;;;3.40;99.90;;;;;;5071721;28;20054;-81
2022/01/21 08:33:06;;;;;;;16.13;5.03;;;3.40;99.90;;;;;;5084685;28;20066;-80
2022/01/21 08:35:34;;;;;;;15.40;4.55;;;3.30;99.90;;;;;;5071007;28;20035;-80
2022/01/21 08:38:00;;;;;;;16.02;5.13;;;3.30;99.90;;;;;;5078497;28;20607;-81
2022/01/21 08:40:26;;;;;;;15.32;5.20;;;3.40;99.90;;;;;;5075365;28;20302;-82
2022/01/21 08:42:52;;;;;;;17.25;5.55;;;3.30;99.90;;;;;;5079048;28;20024;-82
2022/01/21 08:45:19;;;;;;;12.98;4.75;;;3.40;99.90;;;;;;5063395;28;20036;-81
2022/01/21 08:47:44;;;;;;;15.32;5.25;;;3.40;99.90;;;;;;5063160;28;20068;-81
2022/01/21 08:50:13;;;;;;;22.80;4.82;;;3.40;99.90;;;;;;5088655;28;20779;-81
2022/01/21 08:52:41;;;;;;;17.10;5.03;;;3.40;99.90;;;;;;5091159;28;20027;-84
2022/01/21 08:55:13;;;;;;;15.57;5.15;;;3.50;99.90;;;;;;5063895;28;20024;-81
2022/01/21 08:57:41;;;;;;;13.45;4.60;;;3.60;99.90;;;;;;5080174;28;20036;-81
2022/01/21 09:00:13;;;;;;;14.20;4.97;;;3.60;99.90;;;;;;5075544;28;20089;-81
2022/01/21 09:02:39;;;;;;;16.65;4.85;;;3.70;99.90;;;;;;5063193;28;20024;-81
2022/01/21 09:05:05;;;;;;;19.50;5.13;;;3.70;99.90;;;;;;5066632;28;20024;-81
2022/01/21 09:07:34;;;;;;;14.88;5.00;;;3.70;99.90;;;;;;5097092;28;20035;-83
2022/01/21 09:09:59;;;;;;;17.48;5.47;;;3.70;99.90;;;;;;5081281;28;20028;-81
2022/01/21 09:12:25;;;;;;;14.55;6.75;;;3.70;99.90;;;;;;5068569;28;20039;-82
2022/01/21 09:14:51;;;;;;;28.65;7.47;;;3.70;99.90;;;;;;5103812;28;20495;-82
2022/01/21 09:17:17;;;;;;;17.20;5.35;;;3.80;99.90;;;;;;5082303;28;20497;-83
2022/01/21 09:19:43;;;;;;;16.33;4.85;;;3.70;99.90;;;;;;5091581;28;20047;-82
2022/01/21 09:22:08;;;;;;;19.05;6.05;;;3.80;99.90;;;;;;5088506;28;20040;-82
2022/01/21 09:24:34;;;;;;;19.75;6.47;;;3.90;99.90;;;;;;5075739;28;20039;-81
2022/01/21 09:27:04;;;;;;;17.17;5.68;;;3.80;99.90;;;;;;5070043;28;20512;-82
2022/01/21 09:29:31;;;;;;;19.15;5.47;;;3.90;99.90;;;;;;5096777;28;20024;-84
2022/01/21 09:31:57;;;;;;;18.42;4.88;;;3.70;99.90;;;;;;5046589;28;20039;-81
2022/01/21 09:34:27;;;;;;;15.20;4.32;;;3.80;99.90;;;;;;5066528;28;20810;-80
2022/01/21 09:36:55;;;;;;;16.13;5.00;;;4.80;99.90;;;;;;5068201;28;20123;-81
2022/01/21 09:39:21;;;;;;;14.02;5.35;;;4.00;99.90;;;;;;5064443;28;20025;-80
2022/01/21 09:41:48;;;;;;;17.15;4.20;;;4.00;99.90;;;;;;5087860;28;20054;-81
2022/01/21 09:44:17;;;;;;;14.45;4.85;;;5.60;99.90;;;;;;5089504;28;20028;-82
2022/01/21 09:46:51;;;;;;;12.73;4.65;;;4.70;99.90;;;;;;5076399;28;20035;-81
2022/01/21 09:49:27;;;;;;;14.18;4.57;;;5.20;99.90;;;;;;5069953;28;20031;-80
2022/01/21 09:51:54;;;;;;;13.07;4.43;;;4.70;99.90;;;;;;5065244;28;20029;-80
2022/01/21 09:54:22;;;;;;;21.05;4.47;;;4.50;99.90;;;;;;5064075;28;20039;-79
2022/01/21 09:56:48;;;;;;;15.50;5.57;;;5.50;99.90;;;;;;5060848;28;20036;-81
2022/01/21 09:59:19;;;;;;;21.15;4.57;;;4.50;99.90;;;;;;5087815;28;20543;-80
2022/01/21 10:01:50;;;;;;;13.63;4.72;;;4.50;99.90;;;;;;5081312;28;20082;-81
2022/01/21 10:04:18;;;;;;;11.63;3.83;;;4.50;99.90;;;;;;5089211;28;20036;-79
2022/01/21 10:06:48;;;;;;;16.55;4.90;;;4.50;99.90;;;;;;5071076;28;20030;-82
2022/01/21 10:09:20;;;;;;;12.23;4.40;;;4.50;99.90;;;;;;5066073;28;20039;-80
2022/01/21 10:11:48;;;;;;;16.27;4.40;;;4.50;99.90;;;;;;5066467;28;20425;-78
2022/01/21 10:14:19;;;;;;;14.50;4.47;;;4.60;99.90;;;;;;5087302;28;20028;-79
2022/01/21 10:16:46;;;;;;;11.93;4.13;;;4.60;99.90;;;;;;5074882;28;20048;-81
2022/01/21 10:19:12;;;;;;;18.20;5.00;;;4.50;99.90;;;;;;5072524;28;20107;-79
2022/01/21 10:21:43;;;;;;;17.75;5.05;;;4.60;99.90;;;;;;5069893;28;20028;-81
2022/01/21 10:24:12;;;;;;;18.90;4.57;;;4.40;99.90;;;;;;5068984;28;20233;-81
2022/01/21 10:26:52;;;;;;;17.17;4.28;;;4.50;99.90;;;;;;5090091;28;21351;-80
2022/01/21 10:29:19;;;;;;;14.15;4.47;;;4.50;99.90;;;;;;5087139;28;20027;-79
2022/01/21 10:31:55;;;;;;;16.13;4.72;;;4.50;99.90;;;;;;5075015;28;20020;-81
2022/01/21 10:34:30;;;;;;;16.20;4.40;;;4.50;99.90;;;;;;5074327;28;20047;-81
2022/01/21 10:37:06;;;;;;;17.60;4.70;;;4.60;99.90;;;;;;5098848;28;20021;-83
2022/01/21 10:39:34;;;;;;;16.65;4.45;;;4.70;99.90;;;;;;5068959;28;20024;-83
2022/01/21 10:42:01;;;;;;;11.98;4.07;;;4.90;99.90;;;;;;5087966;28;20497;-85
2022/01/21 10:44:30;;;;;;;13.48;3.80;;;5.00;99.90;;;;;;5077717;28;20008;-84
2022/01/21 10:47:11;;;;;;;11.15;3.72;;;5.00;99.90;;;;;;5081911;28;20036;-82
2022/01/21 10:49:39;;;;;;;13.48;3.53;;;5.10;99.90;;;;;;5095647;28;20028;-84
2022/01/21 10:52:06;;;;;;;11.05;3.67;;;5.80;99.90;;;;;;5098449;28;20028;-81
2022/01/21 10:54:32;;;;;;;7.07;2.92;;;5.30;99.90;;;;;;5080906;28;20034;-85
2022/01/21 10:57:17;;;;;;;14.43;3.58;;;5.40;99.90;;;;;;5081732;28;21517;-84
2022/01/21 11:00:09;;;;;;;10.63;2.88;;;5.50;99.90;;;;;;5073933;28;20028;-81
2022/01/21 11:02:53;;;;;;;11.23;2.95;;;5.60;99.90;;;;;;5065247;28;20039;-81
2022/01/21 11:05:25;;;;;;;8.25;2.13;;;5.80;99.90;;;;;;5073105;28;20169;-83
2022/01/21 11:08:08;;;;;;;13.20;5.10;;;5.80;99.90;;;;;;5071518;28;20114;-81
2022/01/21 11:10:34;;;;;;;8.40;2.63;;;5.80;99.90;;;;;;5069840;28;20044;-82
2022/01/21 11:13:13;;;;;;;8.88;2.70;;;6.00;99.90;;;;;;5067805;28;20032;-82
2022/01/21 11:15:40;;;;;;;8.55;3.03;;;5.80;99.90;;;;;;5070746;28;20131;-83
2022/01/21 11:18:08;;;;;;;8.32;2.80;;;5.80;99.90;;;;;;5087227;28;21411;-82
2022/01/21 11:20:38;;;;;;;9.20;2.65;;;5.80;99.90;;;;;;5072980;28;20043;-81
2022/01/21 11:23:05;;;;;;;12.77;2.80;;;5.70;99.90;;;;;;5076061;28;20038;-81
2022/01/21 11:25:43;;;;;;;9.80;2.50;;;5.80;99.90;;;;;;5070156;28;20467;-83
2022/01/21 11:28:10;;;;;;;8.65;2.47;;;5.90;99.90;;;;;;5072088;28;20095;-80
2022/01/21 11:30:36;;;;;;;7.47;2.45;;;5.90;99.90;;;;;;5069204;28;20036;-83
2022/01/21 11:33:02;;;;;;;9.38;2.70;;;6.40;99.90;;;;;;5088802;28;20057;-81
2022/01/21 11:35:31;;;;;;;8.13;2.83;;;5.80;99.90;;;;;;5071368;28;20029;-83
2022/01/21 11:37:58;;;;;;;11.93;2.67;;;6.70;99.90;;;;;;5071510;28;20456;-83
2022/01/21 11:40:24;;;;;;;6.07;2.20;;;;;;;;;;5088236;28;20032;-82
2022/01/21 11:42:54;;;;;;;7.05;2.00;;;5.90;99.90;;;;;;5074087;28;20047;-81
2022/01/21 11:48:49;;;;;;;8.27;2.00;;;5.80;99.90;;;;;;5099239;28;20460;-80
2022/01/21 11:50:51;;;;;;;9.50;2.28;;;5.70;99.90;;;;;;5084439;28;20107;-82
2022/01/21 11:53:46;;;;;;;8.50;2.53;;;5.70;99.90;;;;;;5070485;28;20484;-80
2022/01/21 11:56:34;;;;;;;6.82;1.95;;;5.70;99.90;;;;;;5069314;28;20513;-79
2022/01/21 11:59:10;;;;;;;6.95;2.00;;;5.90;99.90;;;;;;5064924;28;20559;-80
2022/01/21 12:01:47;;;;;;;6.70;1.90;;;6.00;99.90;;;;;;5064837;28;20373;-81
2022/01/21 12:04:14;;;;;;;9.02;2.83;;;6.00;99.90;;;;;;5084391;28;20058;-80
2022/01/21 12:06:39;;;;;;;5.13;1.60;;;6.00;99.90;;;;;;5074323;28;20047;-82
2022/01/21 12:09:08;;;;;;;9.05;2.72;;;6.00;99.90;;;;;;5071823;28;20024;-80
2022/01/21 12:11:38;;;;;;;8.82;2.28;;;6.00;99.90;;;;;;5068395;28;20573;-83
2022/01/21 12:14:27;;;;;;;6.73;3.10;;;6.00;99.90;;;;;;5069424;28;20028;-84
2022/01/21 12:16:59;;;;;;;6.20;1.90;;;5.90;99.90;;;;;;5063473;28;20372;-82
2022/01/21 12:19:35;;;;;;;8.48;2.20;;;6.10;99.90;;;;;;5061413;28;20057;-81
2022/01/21 12:22:17;;;;;;;7.57;3.08;;;6.10;99.90;;;;;;5066026;28;20035;-81
2022/01/21 12:25:05;;;;;;;9.65;2.42;;;6.20;99.90;;;;;;5066559;28;20039;-81
2022/01/21 12:27:31;;;;;;;8.40;1.88;;;7.90;99.90;;;;;;5070066;28;20040;-81
2022/01/21 12:30:29;;;;;;;8.60;2.03;;;8.20;99.90;;;;;;5072707;28;20023;-81
2022/01/21 12:32:58;;;;;;;6.03;2.33;;;6.10;99.90;;;;;;5072987;28;20016;-81
2022/01/21 12:35:24;;;;;;;11.20;3.75;;;6.50;99.90;;;;;;5091025;28;20068;-81
2022/01/21 12:39:06;;;;;;;7.68;2.10;;;7.30;99.90;;;;;;5067156;28;20032;-82
2022/01/21 12:41:04;;;;;;;5.28;2.45;;;6.30;99.90;;;;;;5080409;28;20040;-81
2022/01/21 12:43:38;;;;;;;6.93;1.98;;;7.20;99.90;;;;;;5062901;28;20028;-82
2022/01/21 12:46:08;;;;;;;4.38;1.50;;;6.20;99.90;;;;;;5066427;28;20040;-86
2022/01/21 12:48:35;;;;;;;8.70;1.90;;;6.20;99.90;;;;;;5085459;28;20035;-81
2022/01/21 12:51:15;;;;;;;5.70;1.50;;;8.20;99.90;;;;;;5069657;28;20020;-80
2022/01/21 12:55:55;;;;;;;7.47;1.92;;;8.30;99.90;;;;;;5084535;28;20051;-80
2022/01/21 12:56:29;;;;;;;13.98;2.70;;;7.10;99.90;;;;;;5087951;28;20028;-81
2022/01/21 12:58:55;;;;;;;7.97;2.10;;;6.10;99.90;;;;;;5092419;28;20054;-80
2022/01/21 13:01:20;;;;;;;5.63;1.73;;;6.70;99.90;;;;;;5071663;28;20023;-80
2022/01/21 13:03:49;;;;;;;7.05;1.90;;;6.10;99.90;;;;;;5067706;28;20027;-80
2022/01/21 13:06:26;;;;;;;8.45;1.88;;;6.90;99.90;;;;;;5077967;28;20035;-79
2022/01/21 13:08:52;;;;;;;9.82;2.97;;;6.20;99.90;;;;;;5067738;28;20023;-81
2022/01/21 13:11:23;;;;;;;8.27;2.10;;;6.10;99.90;;;;;;5070213;28;20024;-82
2022/01/21 13:14:12;;;;;;;4.38;1.60;;;6.20;99.90;;;;;;5063210;28;20028;-81
2022/01/21 13:16:40;;;;;;;5.25;1.55;;;6.30;99.90;;;;;;5070641;28;20028;-81
2022/01/21 13:19:06;;;;;;;6.07;1.85;;;6.10;99.90;;;;;;5066106;28;20028;-82
2022/01/21 13:21:33;;;;;;;6.45;1.85;;;6.20;99.90;;;;;;5072520;28;20288;-81
2022/01/21 13:24:02;;;;;;;4.18;1.58;;;6.40;99.90;;;;;;5068704;28;20108;-80
2022/01/21 13:26:38;;;;;;;5.93;1.50;;;6.40;99.90;;;;;;5067919;28;20020;-82
2022/01/21 13:29:14;;;;;;;5.40;1.65;;;6.50;99.90;;;;;;5072551;28;20036;-80
2022/01/21 13:31:46;;;;;;;8.25;1.80;;;6.90;99.90;;;;;;5067324;28;20091;-83
2022/01/21 13:34:22;;;;;;;3.95;1.67;;;6.20;99.90;;;;;;5087122;28;20032;-83
2022/01/21 13:36:52;;;;;;;7.28;2.08;;;6.10;99.90;;;;;;5072248;28;20023;-81
2022/01/21 13:39:19;;;;;;;5.57;1.50;;;6.10;99.90;;;;;;5070036;28;20453;-82
2022/01/21 13:41:56;;;;;;;5.05;1.63;;;6.20;99.90;;;;;;5070568;28;20031;-81
2022/01/21 13:44:41;;;;;;;8.52;1.70;;;6.20;99.90;;;;;;5088807;28;20061;-81
2022/01/21 13:47:23;;;;;;;3.13;1.35;;;6.20;99.90;;;;;;5075071;28;20039;-82
2022/01/21 13:49:50;;;;;;;5.07;1.52;;;6.20;99.90;;;;;;5049121;28;20040;-81
2022/01/21 13:52:16;;;;;;;3.90;1.33;;;7.20;99.90;;;;;;5085942;28;20032;-82
2022/01/21 13:54:50;;;;;;;7.03;1.70;;;6.20;99.90;;;;;;5080907;28;20032;-84
2022/01/21 13:57:25;;;;;;;7.40;2.67;;;7.30;99.90;;;;;;5081654;28;20028;-81
2022/01/21 13:59:50;;;;;;;7.05;2.47;;;6.20;99.90;;;;;;5070353;28;20016;-81
2022/01/21 14:02:17;;;;;;;7.05;2.55;;;6.20;99.90;;;;;;5081409;28;20984;-85
2022/01/21 14:05:01;;;;;;;6.20;1.83;;;7.50;99.90;;;;;;5062037;28;20315;-81
2022/01/21 14:07:31;;;;;;;4.82;1.80;;;6.30;99.90;;;;;;5066586;28;20082;-79
2022/01/21 14:09:58;;;;;;;7.40;1.40;;;7.10;99.90;;;;;;5079672;28;20032;-82